createdAt,value
2018-11-29T00:00:28.590Z,100.00
2018-11-29T00:02:57.688Z,100.00
2018-11-29T00:05:26.864Z,100.00
2018-11-29T00:07:56.739Z,100.00
2018-11-29T00:10:25.935Z,100.00
2018-11-29T00:12:55.004Z,100.00
2018-11-29T00:15:24.482Z,100.00
2018-11-29T00:17:53.455Z,100.00
2018-11-29T00:20:22.432Z,100.00
2018-11-29T00:22:52.098Z,100.00
2018-11-29T00:25:21.349Z,99.73
2018-11-29T00:27:50.319Z,100.00
2018-11-29T00:30:20.806Z,99.93
2018-11-29T00:32:50.386Z,97.52
2018-11-29T00:35:19.487Z,99.35
2018-11-29T00:37:48.542Z,99.85
2018-11-29T00:40:19.330Z,99.80
2018-11-29T00:42:48.696Z,100.00
2018-11-29T00:45:18.947Z,98.60
2018-11-29T00:47:48.551Z,98.67
2018-11-29T00:50:18.124Z,98.19
2018-11-29T00:52:48.265Z,98.79
2018-11-29T00:55:18.610Z,99.26
2018-11-29T00:57:47.751Z,99.68
2018-11-29T01:00:21.742Z,99.58
2018-11-29T01:02:50.979Z,100.00
2018-11-29T01:05:19.997Z,100.00
2018-11-29T01:07:48.942Z,100.00
2018-11-29T01:10:19.299Z,100.00
2018-11-29T01:12:48.782Z,100.00
2018-11-29T01:15:18.638Z,100.00
2018-11-29T01:17:48.515Z,100.00
2018-11-29T01:20:18.865Z,100.00
2018-11-29T01:22:48.047Z,100.00
2018-11-29T01:25:17.539Z,100.00
2018-11-29T01:27:47.572Z,100.00
2018-11-29T01:30:17.592Z,100.00
2018-11-29T01:32:46.503Z,100.00
2018-11-29T01:35:17.475Z,100.00
2018-11-29T01:37:46.509Z,100.00
2018-11-29T01:40:16.690Z,100.00
2018-11-29T01:42:47.162Z,100.00
2018-11-29T01:45:16.360Z,100.00
2018-11-29T01:47:45.339Z,100.00
2018-11-29T01:50:14.564Z,100.00
2018-11-29T01:52:43.487Z,100.00
2018-11-29T01:55:12.748Z,100.00
2018-11-29T01:57:41.784Z,100.00
2018-11-29T02:00:13.101Z,100.00
2018-11-29T02:02:42.420Z,100.00
2018-11-29T02:05:12.331Z,100.00
2018-11-29T02:07:41.304Z,100.00
2018-11-29T02:10:17.079Z,100.00
2018-11-29T02:12:46.236Z,100.00
2018-11-29T02:15:15.216Z,100.00
2018-11-29T02:17:44.260Z,100.00
2018-11-29T02:20:19.367Z,100.00
2018-11-29T02:22:50.563Z,100.00
2018-11-29T02:25:19.526Z,100.00
2018-11-29T02:27:48.484Z,100.00
2018-11-29T02:30:20.372Z,100.00
2018-11-29T02:32:49.399Z,100.00
2018-11-29T02:35:18.333Z,100.00
2018-11-29T02:37:47.381Z,100.00
2018-11-29T02:40:17.533Z,100.00
2018-11-29T02:42:47.100Z,100.00
2018-11-29T02:45:19.195Z,100.00
2018-11-29T02:47:48.164Z,100.00
2018-11-29T02:50:17.431Z,100.00
2018-11-29T02:52:46.351Z,100.00
2018-11-29T02:55:15.311Z,100.00
2018-11-29T02:57:44.520Z,100.00
2018-11-29T03:00:18.403Z,100.00
2018-11-29T03:02:47.283Z,100.00
2018-11-29T03:05:17.228Z,100.00
2018-11-29T03:07:46.426Z,100.00
2018-11-29T03:10:16.108Z,100.00
2018-11-29T03:12:45.378Z,100.00
2018-11-29T03:15:16.584Z,100.00
2018-11-29T03:17:45.760Z,100.00
2018-11-29T03:20:15.748Z,100.00
2018-11-29T03:22:44.667Z,100.00
2018-11-29T03:25:14.929Z,100.00
2018-11-29T03:27:44.158Z,100.00
2018-11-29T03:30:17.759Z,100.00
2018-11-29T03:32:47.019Z,100.00
2018-11-29T03:35:16.516Z,100.00
2018-11-29T03:37:45.517Z,100.00
2018-11-29T03:40:16.755Z,100.00
2018-11-29T03:42:46.553Z,100.00
2018-11-29T03:45:16.343Z,100.00
2018-11-29T03:47:45.887Z,100.00
2018-11-29T03:50:16.056Z,100.00
2018-11-29T03:52:45.067Z,100.00
2018-11-29T03:55:14.058Z,100.00
2018-11-29T03:57:43.409Z,100.00
2018-11-29T04:00:14.036Z,100.00
2018-11-29T04:02:43.286Z,100.00
2018-11-29T04:05:12.560Z,100.00
2018-11-29T04:07:41.835Z,100.00
2018-11-29T04:10:15.000Z,100.00
2018-11-29T04:12:44.263Z,100.00
2018-11-29T04:15:15.129Z,100.00
2018-11-29T04:17:44.179Z,100.00
2018-11-29T04:20:17.131Z,100.00
2018-11-29T04:22:46.643Z,100.00
2018-11-29T04:25:16.417Z,100.00
2018-11-29T04:27:45.423Z,100.00
2018-11-29T04:30:15.579Z,100.00
2018-11-29T04:32:44.582Z,100.00
2018-11-29T04:35:14.327Z,100.00
2018-11-29T04:37:43.244Z,100.00
2018-11-29T04:40:15.452Z,100.00
2018-11-29T04:42:45.055Z,100.00
2018-11-29T04:45:16.704Z,100.00
2018-11-29T04:47:45.842Z,100.00
2018-11-29T04:50:15.819Z,100.00
2018-11-29T04:52:44.863Z,100.00
2018-11-29T04:55:13.895Z,100.00
2018-11-29T04:57:42.927Z,100.00
2018-11-29T05:00:14.361Z,100.00
2018-11-29T05:02:43.399Z,100.00
2018-11-29T05:05:13.509Z,100.00
2018-11-29T05:07:42.537Z,100.00
2018-11-29T05:10:12.953Z,100.00
2018-11-29T05:12:42.191Z,100.00
2018-11-29T05:15:12.044Z,100.00
2018-11-29T05:17:40.943Z,100.00
2018-11-29T05:20:10.525Z,100.00
2018-11-29T05:22:39.491Z,100.00
2018-11-29T05:25:09.600Z,100.00
2018-11-29T05:27:38.591Z,100.00
2018-11-29T05:30:11.949Z,100.00
2018-11-29T05:32:41.314Z,100.00
2018-11-29T05:35:12.325Z,100.00
2018-11-29T05:37:41.632Z,100.00
2018-11-29T05:40:12.869Z,100.00
2018-11-29T05:42:41.935Z,100.00
2018-11-29T05:45:11.779Z,100.00
2018-11-29T05:47:40.792Z,100.00
2018-11-29T05:50:12.103Z,100.00
2018-11-29T05:52:42.058Z,100.00
2018-11-29T05:55:11.953Z,100.00
2018-11-29T05:57:40.957Z,100.00
2018-11-29T06:00:12.796Z,100.00
2018-11-29T06:02:41.920Z,100.00
2018-11-29T06:05:12.447Z,100.00
2018-11-29T06:07:41.522Z,100.00
2018-11-29T06:10:11.079Z,100.00
2018-11-29T06:12:40.242Z,100.00
2018-11-29T06:15:11.204Z,100.00
2018-11-29T06:17:40.971Z,100.00
2018-11-29T06:20:13.064Z,100.00
2018-11-29T06:22:43.088Z,100.00
2018-11-29T06:25:12.395Z,100.00
2018-11-29T06:27:41.603Z,100.00
2018-11-29T06:30:13.255Z,100.00
2018-11-29T06:32:42.316Z,100.00
2018-11-29T06:35:12.008Z,100.00
2018-11-29T06:37:41.289Z,100.00
2018-11-29T06:40:11.976Z,100.00
2018-11-29T06:42:41.270Z,100.00
2018-11-29T06:45:13.693Z,100.00
2018-11-29T06:47:43.086Z,100.00
2018-11-29T06:50:13.492Z,100.00
2018-11-29T06:52:43.887Z,100.00
2018-11-29T06:55:14.706Z,100.00
2018-11-29T06:57:43.864Z,100.00
2018-11-29T07:00:16.959Z,100.00
2018-11-29T07:02:46.438Z,100.00
2018-11-29T07:05:15.501Z,100.00
2018-11-29T07:07:44.731Z,100.00
2018-11-29T07:10:13.773Z,100.00
2018-11-29T07:12:43.143Z,100.00
2018-11-29T07:15:13.487Z,100.00
2018-11-29T07:17:43.481Z,100.00
2018-11-29T07:20:14.986Z,100.00
2018-11-29T07:22:44.240Z,100.00
2018-11-29T07:25:13.527Z,100.00
2018-11-29T07:27:42.560Z,100.00
2018-11-29T07:30:15.225Z,100.00
2018-11-29T07:32:44.697Z,100.00
2018-11-29T07:35:14.709Z,100.00
2018-11-29T07:37:43.836Z,100.00
2018-11-29T07:40:15.155Z,100.00
2018-11-29T07:42:44.430Z,100.00
2018-11-29T07:45:16.107Z,100.00
2018-11-29T07:47:45.741Z,100.00
2018-11-29T07:50:16.280Z,100.00
2018-11-29T07:52:45.245Z,100.00
2018-11-29T07:55:16.333Z,100.00
2018-11-29T07:57:45.967Z,100.00
2018-11-29T08:00:16.009Z,100.00
2018-11-29T08:02:45.178Z,100.00
2018-11-29T08:05:15.305Z,100.00
2018-11-29T08:07:47.679Z,100.00
2018-11-29T08:10:18.003Z,100.00
2018-11-29T08:12:47.256Z,100.00
2018-11-29T08:15:17.443Z,100.00
2018-11-29T08:17:46.412Z,100.00
2018-11-29T08:20:17.090Z,100.00
2018-11-29T08:22:48.221Z,100.00
2018-11-29T08:25:17.498Z,100.00
2018-11-29T08:27:46.900Z,100.00
2018-11-29T08:30:16.906Z,100.00
2018-11-29T08:32:45.874Z,100.00
2018-11-29T08:35:16.376Z,100.00
2018-11-29T08:37:46.705Z,100.00
2018-11-29T08:40:19.013Z,100.00
2018-11-29T08:42:48.372Z,100.00
2018-11-29T08:45:17.432Z,100.00
2018-11-29T08:47:46.640Z,100.00
2018-11-29T08:50:16.377Z,100.00
2018-11-29T08:52:46.561Z,100.00
2018-11-29T08:55:18.625Z,100.00
2018-11-29T08:57:48.904Z,99.94
2018-11-29T09:00:24.369Z,98.32
2018-11-29T09:02:53.291Z,99.14
2018-11-29T09:05:22.645Z,98.60
2018-11-29T09:07:51.971Z,99.18
2018-11-29T09:10:24.095Z,97.51
2018-11-29T09:12:53.795Z,97.27
2018-11-29T09:15:23.206Z,97.63
2018-11-29T09:17:52.280Z,97.15
2018-11-29T09:20:23.253Z,97.24
2018-11-29T09:22:52.312Z,95.78
2018-11-29T09:25:23.063Z,95.44
2018-11-29T09:27:53.233Z,95.39
2018-11-29T09:30:23.136Z,94.76
2018-11-29T09:32:53.743Z,94.90
2018-11-29T09:35:22.935Z,94.42
2018-11-29T09:37:52.543Z,95.69
2018-11-29T09:40:21.625Z,94.36
2018-11-29T09:42:50.891Z,93.20
2018-11-29T09:45:23.165Z,93.60
2018-11-29T09:47:54.782Z,92.19
2018-11-29T09:50:24.332Z,90.74
2018-11-29T09:52:53.773Z,92.35
2018-11-29T09:55:23.296Z,91.23
2018-11-29T09:57:52.587Z,90.41
2018-11-29T10:00:28.836Z,89.30
2018-11-29T10:03:11.319Z,88.08
2018-11-29T10:05:40.983Z,89.01
2018-11-29T10:08:11.955Z,89.33
2018-11-29T10:10:40.695Z,91.58
2018-11-29T10:13:09.886Z,90.19
2018-11-29T10:15:38.939Z,90.35
2018-11-29T10:18:09.047Z,90.26
2018-11-29T10:20:37.980Z,91.00
2018-11-29T10:23:08.319Z,88.51
2018-11-29T10:25:38.683Z,87.06
2018-11-29T10:28:13.518Z,87.00
2018-11-29T10:30:50.709Z,86.07
2018-11-29T10:33:20.303Z,87.97
2018-11-29T10:35:49.983Z,87.94
2018-11-29T10:38:19.238Z,87.67
2018-11-29T10:40:48.588Z,87.01
2018-11-29T10:43:18.091Z,86.70
2018-11-29T10:45:47.403Z,86.11
2018-11-29T10:48:19.080Z,87.25
2018-11-29T10:50:47.962Z,85.85
2018-11-29T10:53:18.468Z,84.37
2018-11-29T10:55:47.568Z,81.03
2018-11-29T10:58:16.932Z,82.09
2018-11-29T11:00:51.532Z,81.40
2018-11-29T11:03:21.720Z,81.12
2018-11-29T11:05:52.746Z,82.07
2018-11-29T11:08:22.080Z,80.54
2018-11-29T11:10:51.246Z,78.02
2018-11-29T11:13:20.238Z,76.51
2018-11-29T11:15:49.177Z,77.75
2018-11-29T11:18:19.061Z,77.91
2018-11-29T11:20:48.011Z,75.59
2018-11-29T11:23:17.090Z,75.31
2018-11-29T11:25:46.409Z,73.61
2018-11-29T11:28:15.751Z,74.97
2018-11-29T11:30:45.433Z,75.47
2018-11-29T11:33:14.465Z,75.76
2018-11-29T11:35:43.889Z,75.13
2018-11-29T11:38:12.852Z,75.35
2018-11-29T11:40:41.756Z,75.23
2018-11-29T11:43:11.443Z,74.76
2018-11-29T11:45:40.440Z,72.52
2018-11-29T11:48:09.732Z,68.42
2018-11-29T11:50:38.807Z,70.63
2018-11-29T11:53:08.774Z,69.37
2018-11-29T11:55:38.665Z,70.58
2018-11-29T11:58:08.788Z,68.81
2018-11-29T12:00:38.487Z,71.21
2018-11-29T12:03:09.880Z,72.88
2018-11-29T12:05:39.444Z,71.16
2018-11-29T12:08:08.805Z,71.32
2018-11-29T12:10:38.724Z,70.71
2018-11-29T12:13:08.889Z,70.82
2018-11-29T12:15:38.946Z,68.41
2018-11-29T12:18:11.188Z,69.11
2018-11-29T12:20:40.563Z,67.85
2018-11-29T12:23:10.268Z,69.13
2018-11-29T12:25:39.166Z,68.40
2018-11-29T12:28:08.212Z,68.46
2018-11-29T12:30:44.547Z,68.16
2018-11-29T12:33:13.620Z,70.32
2018-11-29T12:35:42.446Z,67.86
2018-11-29T12:38:11.388Z,69.62
2018-11-29T12:40:40.740Z,68.33
2018-11-29T12:43:10.028Z,67.43
2018-11-29T12:45:38.958Z,67.19
2018-11-29T12:48:07.971Z,65.82
2018-11-29T12:50:38.903Z,67.94
2018-11-29T12:53:08.899Z,68.50
2018-11-29T12:55:43.514Z,66.03
2018-11-29T12:58:12.557Z,67.92
2018-11-29T13:00:41.542Z,68.57
2018-11-29T13:03:11.487Z,69.00
2018-11-29T13:05:40.636Z,69.62
2018-11-29T13:08:10.617Z,70.46
2018-11-29T13:10:39.728Z,71.19
2018-11-29T13:13:09.044Z,70.78
2018-11-29T13:15:38.545Z,69.47
2018-11-29T13:18:09.007Z,69.11
2018-11-29T13:20:38.929Z,69.52
2018-11-29T13:23:08.364Z,71.00
2018-11-29T13:25:38.178Z,70.07
2018-11-29T13:28:08.420Z,71.78
2018-11-29T13:30:38.259Z,72.01
2018-11-29T13:33:09.207Z,71.03
2018-11-29T13:35:38.280Z,73.39
2018-11-29T13:38:12.269Z,69.89
2018-11-29T13:40:42.352Z,71.93
2018-11-29T13:43:11.833Z,73.51
2018-11-29T13:45:41.599Z,74.96
2018-11-29T13:48:11.504Z,73.24
2018-11-29T13:50:42.035Z,72.59
2018-11-29T13:53:11.461Z,72.44
2018-11-29T13:55:41.303Z,72.53
2018-11-29T13:58:10.372Z,72.33
2018-11-29T14:00:39.537Z,73.66
2018-11-29T14:03:12.187Z,73.51
2018-11-29T14:05:41.239Z,72.50
2018-11-29T14:08:11.033Z,73.27
2018-11-29T14:10:41.683Z,74.25
2018-11-29T14:13:11.267Z,75.31
2018-11-29T14:15:40.671Z,75.13
2018-11-29T14:18:09.963Z,75.01
2018-11-29T14:20:38.979Z,76.06
2018-11-29T14:23:08.467Z,76.75
2018-11-29T14:25:37.548Z,76.87
2018-11-29T14:28:07.435Z,75.00
2018-11-29T14:30:36.555Z,78.50
2018-11-29T14:33:06.195Z,78.78
2018-11-29T14:35:35.220Z,78.38
2018-11-29T14:38:04.083Z,79.17
2018-11-29T14:40:35.525Z,79.33
2018-11-29T14:43:04.494Z,79.41
2018-11-29T14:45:33.436Z,77.45
2018-11-29T14:48:02.284Z,75.09
2018-11-29T14:50:47.583Z,78.22
2018-11-29T14:53:16.667Z,79.85
2018-11-29T14:55:46.581Z,77.34
2018-11-29T14:58:19.647Z,77.93
2018-11-29T15:00:45.718Z,77.86
2018-11-29T15:03:17.701Z,77.75
2018-11-29T15:05:47.378Z,78.88
2018-11-29T15:08:16.604Z,79.04
2018-11-29T15:10:45.899Z,79.78
2018-11-29T15:13:15.168Z,80.07
2018-11-29T15:15:44.355Z,79.85
2018-11-29T15:18:13.579Z,79.82
2018-11-29T15:20:46.860Z,79.63
2018-11-29T15:23:17.049Z,79.88
2018-11-29T15:25:46.208Z,79.47
2018-11-29T15:28:15.348Z,79.85
2018-11-29T15:30:44.575Z,78.55
2018-11-29T15:33:13.634Z,77.48
2018-11-29T15:35:43.131Z,78.95
2018-11-29T15:38:12.290Z,78.69
2018-11-29T15:40:41.475Z,69.09
2018-11-29T15:43:10.594Z,65.30
2018-11-29T15:45:39.970Z,65.08
2018-11-29T15:48:08.916Z,66.58
2018-11-29T15:50:37.878Z,63.28
2018-11-29T15:53:07.639Z,63.78
2018-11-29T15:55:36.767Z,66.49
2018-11-29T15:58:06.215Z,65.16
2018-11-29T16:00:35.472Z,64.54
2018-11-29T16:03:07.309Z,67.00
2018-11-29T16:05:36.394Z,65.81
2018-11-29T16:08:06.004Z,65.11
2018-11-29T16:10:35.494Z,66.72
2018-11-29T16:13:05.203Z,66.56
2018-11-29T16:15:34.078Z,66.48
2018-11-29T16:18:04.256Z,67.98
2018-11-29T16:20:35.716Z,68.41
2018-11-29T16:23:05.264Z,67.14
2018-11-29T16:25:34.548Z,67.39
2018-11-29T16:28:05.226Z,67.85
2018-11-29T16:30:36.051Z,68.01
2018-11-29T16:33:09.619Z,68.37
2018-11-29T16:35:39.207Z,67.18
2018-11-29T16:38:08.726Z,67.30
2018-11-29T16:40:38.136Z,67.43
2018-11-29T16:43:08.195Z,68.83
2018-11-29T16:45:37.261Z,67.89
2018-11-29T16:48:07.178Z,68.13
2018-11-29T16:50:36.795Z,66.41
2018-11-29T16:53:06.887Z,68.01
2018-11-29T16:55:36.268Z,69.39
2018-11-29T16:58:08.283Z,65.16
2018-11-29T17:00:38.345Z,63.25
2018-11-29T17:03:07.568Z,66.46
2018-11-29T17:05:36.631Z,64.59
2018-11-29T17:08:05.732Z,63.89
2018-11-29T17:10:35.045Z,66.15
2018-11-29T17:13:10.223Z,65.71
2018-11-29T17:15:39.223Z,63.83
2018-11-29T17:18:08.680Z,64.40
2018-11-29T17:20:37.748Z,66.63
2018-11-29T17:23:08.577Z,62.90
2018-11-29T17:25:37.545Z,62.48
2018-11-29T17:28:07.428Z,63.96
2018-11-29T17:30:37.877Z,64.17
2018-11-29T17:33:08.151Z,65.21
2018-11-29T17:35:37.275Z,62.16
2018-11-29T17:38:06.591Z,63.78
2018-11-29T17:40:37.128Z,64.74
2018-11-29T17:43:07.016Z,64.54
2018-11-29T17:45:36.416Z,64.68
2018-11-29T17:48:09.295Z,66.11
2018-11-29T17:50:40.622Z,67.58
2018-11-29T17:53:09.792Z,67.66
2018-11-29T17:55:39.191Z,67.00
2018-11-29T17:58:10.591Z,67.13
2018-11-29T18:00:40.024Z,67.11
2018-11-29T18:03:09.559Z,67.87
2018-11-29T18:05:38.523Z,70.34
2018-11-29T18:08:07.432Z,69.05
2018-11-29T18:10:38.452Z,70.24
2018-11-29T18:13:13.876Z,70.64
2018-11-29T18:15:43.120Z,71.39
2018-11-29T18:18:12.381Z,70.39
2018-11-29T18:20:41.583Z,70.52
2018-11-29T18:23:11.392Z,71.18
2018-11-29T18:25:40.703Z,69.45
2018-11-29T18:28:10.320Z,69.77
2018-11-29T18:30:39.264Z,66.72
2018-11-29T18:33:08.735Z,65.74
2018-11-29T18:35:38.027Z,66.46
2018-11-29T18:38:08.114Z,64.70
2018-11-29T18:40:37.155Z,65.69
2018-11-29T18:43:08.224Z,66.16
2018-11-29T18:45:38.464Z,66.57
2018-11-29T18:48:08.037Z,67.47
2018-11-29T18:50:37.014Z,67.99
2018-11-29T18:53:07.068Z,68.33
2018-11-29T18:55:36.364Z,67.19
2018-11-29T18:58:05.547Z,68.19
2018-11-29T19:00:35.957Z,68.32
2018-11-29T19:03:05.520Z,69.52
2018-11-29T19:05:35.497Z,68.46
2018-11-29T19:08:03.996Z,69.52
2018-11-29T19:10:33.243Z,71.14
2018-11-29T19:13:09.847Z,70.49
2018-11-29T19:15:39.159Z,70.20
2018-11-29T19:18:10.708Z,72.10
2018-11-29T19:20:38.901Z,71.95
2018-11-29T19:23:08.425Z,72.68
2018-11-29T19:25:37.782Z,73.62
2018-11-29T19:28:07.594Z,74.34
2018-11-29T19:30:37.017Z,74.37
2018-11-29T19:33:21.139Z,75.09
2018-11-29T19:35:51.558Z,76.71
2018-11-29T19:38:20.719Z,76.19
2018-11-29T19:40:50.021Z,76.36
2018-11-29T19:43:18.949Z,74.96
2018-11-29T19:45:48.048Z,74.70
2018-11-29T19:48:17.036Z,71.93
2018-11-29T19:50:46.309Z,71.75
2018-11-29T19:53:20.107Z,72.53
2018-11-29T19:55:50.212Z,70.21
2018-11-29T19:58:19.426Z,69.90
2018-11-29T20:00:48.462Z,70.47
2018-11-29T20:03:17.715Z,69.01
2018-11-29T20:05:47.272Z,69.42
2018-11-29T20:08:16.403Z,69.53
2018-11-29T20:10:45.431Z,69.71
2018-11-29T20:13:15.494Z,67.59
2018-11-29T20:15:48.181Z,66.45
2018-11-29T20:18:17.648Z,67.62
2018-11-29T20:20:46.920Z,67.10
2018-11-29T20:23:15.954Z,67.00
2018-11-29T20:25:46.123Z,67.46
2018-11-29T20:28:15.306Z,67.07
2018-11-29T20:30:44.451Z,68.14
2018-11-29T20:33:13.831Z,68.30
2018-11-29T20:35:43.169Z,67.06
2018-11-29T20:38:12.436Z,66.21
2018-11-29T20:40:42.811Z,65.44
2018-11-29T20:43:12.052Z,66.14
2018-11-29T20:45:45.440Z,64.98
2018-11-29T20:48:17.944Z,65.82
2018-11-29T20:50:47.199Z,67.13
2018-11-29T20:53:18.479Z,68.02
2018-11-29T20:55:47.775Z,68.17
2018-11-29T20:58:16.967Z,68.90
2018-11-29T21:00:46.172Z,69.82
2018-11-29T21:03:15.229Z,71.52
2018-11-29T21:05:44.886Z,73.28
2018-11-29T21:08:14.151Z,74.48
2018-11-29T21:10:43.111Z,74.59
2018-11-29T21:13:12.322Z,76.51
2018-11-29T21:15:43.321Z,76.92
2018-11-29T21:18:13.807Z,78.46
2018-11-29T21:20:43.504Z,79.09
2018-11-29T21:23:14.879Z,78.43
2018-11-29T21:25:44.506Z,78.64
2018-11-29T21:28:13.409Z,78.85
2018-11-29T21:30:42.309Z,80.15
2018-11-29T21:33:12.089Z,79.70
2018-11-29T21:35:41.416Z,77.04
2018-11-29T21:38:16.787Z,76.08
2018-11-29T21:40:50.140Z,74.77
2018-11-29T21:43:19.291Z,73.18
2018-11-29T21:45:48.239Z,72.15
2018-11-29T21:48:17.296Z,72.06
2018-11-29T21:50:46.498Z,71.50
2018-11-29T21:53:15.488Z,70.35
2018-11-29T21:55:44.507Z,66.21
2018-11-29T21:58:13.812Z,65.67
2018-11-29T22:00:42.744Z,66.40
2018-11-29T22:03:11.654Z,66.78
2018-11-29T22:05:40.630Z,65.16
2018-11-29T22:08:09.827Z,65.11
2018-11-29T22:10:38.796Z,64.82
2018-11-29T22:13:07.767Z,66.09
2018-11-29T22:15:36.664Z,65.83
2018-11-29T22:18:18.627Z,66.74
2018-11-29T22:20:48.755Z,66.48
2018-11-29T22:23:18.067Z,65.98
2018-11-29T22:25:47.044Z,65.18
2018-11-29T22:28:16.191Z,65.46
2018-11-29T22:30:45.428Z,63.43
2018-11-29T22:33:14.356Z,63.34
2018-11-29T22:35:43.681Z,63.03
2018-11-29T22:38:12.639Z,64.52
2018-11-29T22:40:42.420Z,64.87
2018-11-29T22:43:11.686Z,64.03
2018-11-29T22:45:40.541Z,64.84
2018-11-29T22:48:09.508Z,64.94
2018-11-29T22:50:38.642Z,65.39
2018-11-29T22:53:08.434Z,64.75
2018-11-29T22:55:37.704Z,64.29
2018-11-29T22:58:07.159Z,64.15
2018-11-29T23:00:43.402Z,65.23
2018-11-29T23:03:13.477Z,65.36
2018-11-29T23:05:42.644Z,66.28
2018-11-29T23:08:11.839Z,66.26
2018-11-29T23:10:40.987Z,67.20
2018-11-29T23:13:10.158Z,67.45
2018-11-29T23:15:39.557Z,67.43
2018-11-29T23:18:08.819Z,66.48
2018-11-29T23:20:37.934Z,66.51
2018-11-29T23:23:06.923Z,66.89
2018-11-29T23:25:36.481Z,66.93
2018-11-29T23:28:06.807Z,67.13
2018-11-29T23:30:36.065Z,68.17
2018-11-29T23:33:04.884Z,68.83
2018-11-29T23:35:34.076Z,66.65
2018-11-29T23:38:03.247Z,65.24
2018-11-29T23:40:32.435Z,67.55
2018-11-29T23:43:01.647Z,67.29
2018-11-29T23:45:30.996Z,68.04
2018-11-29T23:47:59.958Z,68.73
2018-11-29T23:50:29.135Z,68.43
2018-11-29T23:52:58.139Z,69.00
2018-11-29T23:55:27.069Z,70.15
2018-11-29T23:57:56.330Z,70.92
